Time;durP1;ratioP1;P1;durP2;ratioP2;P2;SDS_P1;SDS_P2;PMS_P1;PMS_P2;Temp;Humidity;BMP_temperature;BMP_pressure;BME280_temperature;BME280_humidity;BME280_pressure;Samples;Min_cycle;Max_cycle;Signal;HPM_P1;HPM_P2
2022/04/13 00:03:34;;;;;;;10.70;4.77;;;;;13.80;100723.00;;;;10502641;28;20203;-77
2022/04/13 00:08:40;;;;;;;13.10;5.30;;;;;13.70;100720.00;;;;10502258;28;20189;-77
2022/04/13 00:13:42;;;;;;;17.20;5.97;;;;;13.70;100736.00;;;;10499057;28;20255;-76
2022/04/13 00:18:44;;;;;;;13.50;6.37;;;;;13.60;100723.00;;;;10485853;28;20203;-77
2022/04/13 00:23:46;;;;;;;10.90;6.53;;;;;13.60;100731.00;;;;10503911;28;20647;-76
2022/04/13 00:28:49;;;;;;;12.40;6.27;;;;;13.50;100731.00;;;;10501966;28;20228;-76
2022/04/13 00:33:51;;;;;;;14.13;6.67;;;;;13.30;100726.00;;;;10538487;28;20209;-77
2022/04/13 00:38:53;;;;;;;13.40;6.00;;;;;13.10;100727.00;;;;10521297;28;20230;-77
2022/04/13 00:44:06;;;;;;;14.63;7.00;;;;;13.00;100735.00;;;;10506653;28;20188;-76
2022/04/13 00:49:18;;;;;;;9.93;5.87;;;;;12.90;100731.00;;;;10518686;28;20184;-77
2022/04/13 00:54:24;;;;;;;15.60;6.77;;;;;12.80;100736.00;;;;10544305;28;20273;-76
2022/04/13 00:59:26;;;;;;;12.53;6.80;;;;;12.70;100737.00;;;;10536935;28;20184;-78
2022/04/13 01:04:31;;;;;;;18.73;7.47;;;;;12.60;100742.00;;;;10559656;28;20196;-78
2022/04/13 01:09:35;;;;;;;15.93;7.83;;;;;12.60;100752.00;;;;10561042;28;20199;-78
2022/04/13 01:14:37;;;;;;;13.77;8.23;;;;;12.50;100755.00;;;;10578094;28;20765;-77
2022/04/13 01:19:40;;;;;;;17.63;8.90;;;;;12.50;100763.00;;;;10533182;28;20287;-78
2022/04/13 01:24:44;;;;;;;20.57;9.23;;;;;12.40;100767.00;;;;10543639;28;20206;-78
2022/04/13 01:29:49;;;;;;;13.67;9.37;;;;;12.40;100767.00;;;;10560923;28;20755;-78
2022/04/13 01:34:52;;;;;;;19.97;8.20;;;;;12.40;100769.00;;;;10555713;28;20196;-78
2022/04/13 01:39:54;;;;;;;19.73;9.23;;;;;12.40;100785.00;;;;10552682;28;20227;-78
2022/04/13 01:44:56;;;;;;;17.27;8.63;;;;;12.50;100775.00;;;;10559762;28;20622;-78
2022/04/13 01:49:59;;;;;;;15.40;8.33;;;;;12.50;100771.00;;;;10528338;28;20641;-78
2022/04/13 01:55:01;;;;;;;12.57;8.50;;;;;12.50;100785.00;;;;10518124;28;20180;-78
2022/04/13 02:00:10;;;;;;;12.83;7.77;;;;;12.40;100779.00;;;;10537837;28;20445;-78
2022/04/13 02:05:12;;;;;;;14.43;7.77;;;;;12.30;100791.00;;;;10557114;28;20430;-78
2022/04/13 02:10:14;;;;;;;14.40;7.47;;;;;12.20;100788.00;;;;10544070;28;20536;-79
2022/04/13 02:15:16;;;;;;;13.67;7.60;;;;;12.10;100796.00;;;;10579642;28;20188;-79
2022/04/13 02:20:18;;;;;;;18.23;8.63;;;;;11.90;100801.00;;;;10547941;27;20226;-79
2022/04/13 02:25:20;;;;;;;18.30;8.27;;;;;11.70;100805.00;;;;10545123;28;20196;-78
2022/04/13 02:30:23;;;;;;;17.80;7.60;;;;;11.70;100800.00;;;;10546349;28;20208;-78
2022/04/13 02:35:26;;;;;;;12.93;7.80;;;;;11.60;100797.00;;;;10539767;28;20196;-78
2022/04/13 02:40:28;;;;;;;17.50;9.53;;;;;11.60;100801.00;;;;10559328;28;20276;-78
2022/04/13 02:45:30;;;;;;;17.93;9.20;;;;;11.50;100798.00;;;;10522746;28;20724;-78
2022/04/13 02:50:32;;;;;;;18.10;8.83;;;;;11.50;100793.00;;;;10525172;28;20215;-78
2022/04/13 02:55:34;;;;;;;17.87;8.80;;;;;11.40;100801.00;;;;10538867;28;20713;-78
2022/04/13 03:00:36;;;;;;;19.23;8.60;;;;;11.40;100800.00;;;;10529740;28;20222;-78
2022/04/13 03:05:38;;;;;;;17.63;10.40;;;;;11.40;100815.00;;;;10540749;28;20196;-79
2022/04/13 03:10:40;;;;;;;19.90;10.33;;;;;11.40;100806.00;;;;10541716;28;20211;-78
2022/04/13 03:15:42;;;;;;;20.10;9.40;;;;;11.40;100811.00;;;;10558424;28;20200;-78
2022/04/13 03:20:44;;;;;;;17.03;9.73;;;;;11.60;100820.00;;;;10507887;27;20197;-78
2022/04/13 03:25:46;;;;;;;16.87;9.30;;;;;11.80;100818.00;;;;10499237;28;20192;-78
2022/04/13 03:30:47;;;;;;;16.83;8.73;;;;;11.90;100811.00;;;;10517761;28;20262;-77
2022/04/13 03:35:49;;;;;;;15.93;8.60;;;;;12.00;100813.00;;;;10522312;28;20614;-78
2022/04/13 03:40:51;;;;;;;15.87;8.20;;;;;12.00;100812.00;;;;10537523;28;20248;-79
2022/04/13 03:45:54;;;;;;;11.73;8.27;;;;;11.90;100821.00;;;;10560147;28;20200;-79
2022/04/13 03:50:57;;;;;;;18.10;9.13;;;;;12.00;100825.00;;;;10557261;28;20219;-78
2022/04/13 03:55:59;;;;;;;15.97;8.90;;;;;12.00;100835.00;;;;10559397;28;20204;-78
2022/04/13 04:01:01;;;;;;;17.40;9.30;;;;;12.10;100846.00;;;;10524047;28;20192;-78
2022/04/13 04:06:04;;;;;;;17.03;9.27;;;;;12.20;100849.00;;;;10499480;28;20215;-78
2022/04/13 04:11:06;;;;;;;14.80;9.70;;;;;12.30;100856.00;;;;10555632;28;20200;-79
2022/04/13 04:16:08;;;;;;;15.67;9.67;;;;;12.40;100857.00;;;;10523912;28;20204;-79
2022/04/13 04:21:10;;;;;;;17.53;9.87;;;;;12.50;100856.00;;;;10554929;28;20189;-79
2022/04/13 04:26:12;;;;;;;17.70;9.50;;;;;12.50;100851.00;;;;10535066;28;20543;-78
2022/04/13 04:31:19;;;;;;;11.77;8.80;;;;;12.50;100858.00;;;;10563072;28;20212;-78
2022/04/13 04:36:21;;;;;;;15.37;9.10;;;;;12.40;100870.00;;;;10504127;28;20200;-79
2022/04/13 04:41:23;;;;;;;14.73;8.80;;;;;12.30;100878.00;;;;10533402;28;20238;-79
2022/04/13 04:46:25;;;;;;;14.33;8.23;;;;;12.20;100884.00;;;;10523617;28;20212;-79
2022/04/13 04:51:27;;;;;;;10.37;8.13;;;;;12.10;100890.00;;;;10537785;28;20242;-79
2022/04/13 04:56:29;;;;;;;15.47;8.20;;;;;12.00;100894.00;;;;10537226;28;20703;-80
2022/04/13 05:01:31;;;;;;;18.60;9.13;;;;;12.00;100903.00;;;;10577563;28;20188;-80
2022/04/13 05:06:33;;;;;;;18.23;8.70;;;;;12.10;100904.00;;;;10542454;28;20200;-79
2022/04/13 05:11:35;;;;;;;13.47;8.90;;;;;12.30;100911.00;;;;10554147;28;20224;-79
2022/04/13 05:16:37;;;;;;;19.87;9.30;;;;;12.40;100915.00;;;;10499988;28;20197;-79
2022/04/13 05:21:39;;;;;;;21.50;8.80;;;;;12.50;100919.00;;;;10548240;28;20192;-80
2022/04/13 05:26:41;;;;;;;15.97;9.10;;;;;12.60;100921.00;;;;10559718;28;20184;-79
2022/04/13 05:31:43;;;;;;;16.40;9.40;;;;;12.70;100922.00;;;;10540874;27;20931;-79
2022/04/13 05:36:45;;;;;;;15.83;8.87;;;;;12.80;100941.00;;;;10552907;28;20227;-80
2022/04/13 05:41:47;;;;;;;15.73;9.47;;;;;12.90;100941.00;;;;10509429;28;20208;-79
2022/04/13 05:46:49;;;;;;;21.53;9.80;;;;;13.00;100944.00;;;;10538698;28;20238;-79
2022/04/13 05:51:51;;;;;;;21.87;10.10;;;;;13.30;100954.00;;;;10550713;27;20196;-79
2022/04/13 05:56:52;;;;;;;20.00;10.13;;;;;13.50;100950.00;;;;10542151;28;20184;-79
2022/04/13 06:01:54;;;;;;;22.70;10.10;;;;;13.70;100952.00;;;;10520647;28;20250;-79
2022/04/13 06:06:59;;;;;;;13.93;8.97;;;;;13.70;100959.00;;;;10545042;28;20185;-79
2022/04/13 06:12:01;;;;;;;20.30;10.17;;;;;13.80;100980.00;;;;10562122;27;20203;-79
2022/04/13 06:17:04;;;;;;;17.77;8.73;;;;;13.70;100984.00;;;;10509753;28;20207;-78
2022/04/13 06:22:05;;;;;;;15.80;9.70;;;;;13.90;100996.00;;;;10526560;27;20210;-78
2022/04/13 06:27:07;;;;;;;19.23;9.70;;;;;14.10;101006.00;;;;10530185;27;20287;-77
2022/04/13 06:32:11;;;;;;;18.70;10.37;;;;;14.50;101010.00;;;;10509194;27;20205;-78
2022/04/13 06:37:13;;;;;;;16.97;9.63;;;;;14.70;101021.00;;;;10518323;28;20180;-79
2022/04/13 06:42:15;;;;;;;18.87;10.27;;;;;14.80;101029.00;;;;10528185;28;20721;-79
2022/04/13 06:47:18;;;;;;;19.80;10.67;;;;;15.20;101035.00;;;;10528551;28;20291;-78
2022/04/13 06:52:20;;;;;;;20.70;10.60;;;;;15.60;101045.00;;;;10526612;27;20200;-79
2022/04/13 06:57:22;;;;;;;19.87;10.47;;;;;15.90;101045.00;;;;10524777;28;20679;-79
2022/04/13 07:02:27;;;;;;;20.77;9.53;;;;;15.90;101051.00;;;;10523443;28;20203;-79
2022/04/13 07:07:31;;;;;;;18.43;9.73;;;;;15.50;101064.00;;;;10524978;27;20201;-79
2022/04/13 07:12:35;;;;;;;24.17;10.20;;;;;15.30;101067.00;;;;10525214;28;20201;-79
2022/04/13 07:17:37;;;;;;;17.43;9.23;;;;;15.20;101066.00;;;;10573386;27;20256;-78
2022/04/13 07:22:45;;;;;;;18.57;9.70;;;;;15.30;101078.00;;;;10547966;27;20662;-79
2022/04/13 07:27:48;;;;;;;15.80;7.73;;;;;15.30;101091.00;;;;10529985;28;20487;-79
2022/04/13 07:32:53;;;;;;;20.90;9.83;;;;;15.20;101087.00;;;;10575710;28;20214;-78
2022/04/13 07:37:57;;;;;;;16.77;8.73;;;;;15.10;101101.00;;;;10541730;28;20219;-79
2022/04/13 07:42:58;;;;;;;16.33;8.87;;;;;15.00;101101.00;;;;10551414;27;20645;-78
2022/04/13 07:48:01;;;;;;;14.10;9.03;;;;;15.10;101102.00;;;;10530433;28;20641;-78
2022/04/13 07:53:03;;;;;;;16.13;9.40;;;;;15.20;101106.00;;;;10530404;28;20246;-79
2022/04/13 07:58:06;;;;;;;14.03;9.40;;;;;15.20;101109.00;;;;10554999;28;20249;-78
2022/04/13 08:03:08;;;;;;;16.93;9.73;;;;;15.30;101115.00;;;;10515521;28;20189;-79
2022/04/13 08:08:30;;;;;;;17.53;9.87;;;;;15.30;101130.00;;;;10539774;28;20197;-79
2022/04/13 08:13:33;;;;;;;17.57;10.03;;;;;15.30;101131.00;;;;10557008;28;20291;-79
2022/04/13 08:18:50;;;;;;;17.37;10.93;;;;;15.30;101139.00;;;;10551900;28;20658;-78
2022/04/13 08:23:52;;;;;;;17.80;10.17;;;;;15.20;101164.00;;;;10527349;28;20211;-79
2022/04/13 08:28:54;;;;;;;17.07;10.40;;;;;15.10;101166.00;;;;10533875;28;20220;-78
2022/04/13 08:33:55;;;;;;;18.13;10.33;;;;;14.90;101190.00;;;;10498980;28;20216;-78
2022/04/13 08:38:57;;;;;;;14.67;9.80;;;;;14.80;101196.00;;;;10528898;28;20273;-80
2022/04/13 08:44:11;;;;;;;17.77;10.70;;;;;15.00;101200.00;;;;10537422;28;20220;-79
2022/04/13 08:49:15;;;;;;;18.07;9.73;;;;;15.40;101192.00;;;;10554089;28;20211;-78
2022/04/13 08:54:36;;;;;;;14.97;10.70;;;;;15.40;101204.00;;;;10537343;28;20227;-77
2022/04/13 08:59:42;;;;;;;21.37;12.60;;;;;15.60;101202.00;;;;10497640;28;20223;-77
2022/04/13 09:04:47;;;;;;;17.43;11.47;;;;;15.80;101211.00;;;;10510312;28;20734;-77
2022/04/13 09:09:51;;;;;;;23.97;13.40;;;;;15.90;101200.00;;;;10541204;28;20189;-77
2022/04/13 09:14:53;;;;;;;24.17;13.43;;;;;16.10;101214.00;;;;10497483;28;20308;-78
2022/04/13 09:19:56;;;;;;;18.27;13.27;;;;;15.90;101213.00;;;;10484712;28;20303;-77
2022/04/13 09:24:59;;;;;;;22.50;13.03;;;;;15.70;101230.00;;;;10537086;28;20299;-77
2022/04/13 09:30:01;;;;;;;21.07;14.23;;;;;15.50;101229.00;;;;10525316;27;20291;-78
2022/04/13 09:35:03;;;;;;;25.47;14.33;;;;;15.70;101219.00;;;;10504523;28;20208;-78
2022/04/13 09:40:05;;;;;;;24.33;13.83;;;;;16.10;101239.00;;;;10509313;28;20246;-77
2022/04/13 09:45:08;;;;;;;21.10;15.33;;;;;16.00;101225.00;;;;10515881;28;20291;-77
2022/04/13 09:50:10;;;;;;;23.43;14.30;;;;;16.00;101234.00;;;;10504541;28;20200;-77
2022/04/13 09:55:13;;;;;;;18.63;13.43;;;;;16.20;101224.00;;;;10546305;27;20304;-77
2022/04/13 10:00:15;;;;;;;25.43;15.03;;;;;16.50;101227.00;;;;10558526;28;20195;-77
2022/04/13 10:05:17;;;;;;;22.70;15.00;;;;;16.10;101241.00;;;;10551020;28;20192;-77
2022/04/13 10:10:24;;;;;;;20.60;15.27;;;;;15.50;101242.00;;;;10551676;28;20283;-77
2022/04/13 10:15:29;;;;;;;20.27;15.43;;;;;15.30;101252.00;;;;10554832;28;20215;-78
2022/04/13 10:20:41;;;;;;;21.30;16.00;;;;;15.10;101250.00;;;;10536797;28;20821;-77
2022/04/13 10:25:43;;;;;;;23.43;16.37;;;;;15.00;101254.00;;;;10559961;28;20185;-78
2022/04/13 10:30:45;;;;;;;21.87;16.07;;;;;14.90;101263.00;;;;10548588;28;20217;-78
2022/04/13 10:35:47;;;;;;;22.83;16.87;;;;;14.90;101266.00;;;;10531671;28;20199;-78
2022/04/13 10:40:52;;;;;;;23.83;16.27;;;;;14.80;101272.00;;;;10550708;28;20650;-78
2022/04/13 10:45:56;;;;;;;23.33;15.23;;;;;14.80;101286.00;;;;10535836;28;20188;-79
2022/04/13 10:51:06;;;;;;;24.73;15.60;;;;;14.90;101283.00;;;;10504571;28;20205;-78
2022/04/13 10:56:12;;;;;;;22.87;15.37;;;;;15.10;101292.00;;;;10529847;28;20225;-81
2022/04/13 11:01:18;;;;;;;24.80;15.57;;;;;15.30;101286.00;;;;10533147;27;20184;-79
2022/04/13 11:06:22;;;;;;;27.83;17.00;;;;;15.20;101297.00;;;;10542806;27;20282;-79
2022/04/13 11:11:27;;;;;;;22.53;15.33;;;;;15.10;101285.00;;;;10510866;28;20268;-79
2022/04/13 11:16:29;;;;;;;28.23;18.23;;;;;15.40;101282.00;;;;10535126;28;20234;-80
2022/04/13 11:21:32;;;;;;;27.40;18.07;;;;;15.90;101286.00;;;;10529893;28;20279;-80
2022/04/13 11:26:34;;;;;;;25.60;16.57;;;;;15.80;101282.00;;;;10507642;28;20689;-80
2022/04/13 11:32:01;;;;;;;22.43;15.50;;;;;15.80;101271.00;;;;10530759;28;20596;-80
2022/04/13 11:37:13;;;;;;;21.00;13.83;;;;;16.20;101264.00;;;;10551190;27;20184;-79
2022/04/13 11:42:16;;;;;;;19.30;13.90;;;;;16.40;101263.00;;;;10544969;28;20546;-80
2022/04/13 11:47:19;;;;;;;18.40;13.37;;;;;17.00;101265.00;;;;10522399;28;20200;-79
2022/04/13 11:53:08;;;;;;;24.63;14.80;;;;;17.40;101262.00;;;;10517419;28;20211;-79
2022/04/13 11:58:12;;;;;;;18.33;13.73;;;;;17.30;101271.00;;;;10515579;28;20224;-79
2022/04/13 12:03:17;;;;;;;15.63;10.73;;;;;17.40;101265.00;;;;10488783;28;20185;-79
2022/04/13 12:08:26;;;;;;;17.90;10.90;;;;;16.80;101272.00;;;;10543974;28;20234;-79
2022/04/13 12:13:33;;;;;;;17.63;10.23;;;;;16.30;101276.00;;;;10574552;28;20207;-79
2022/04/13 12:18:35;;;;;;;17.93;11.10;;;;;15.90;101279.00;;;;10556345;28;20191;-79
2022/04/13 12:23:39;;;;;;;15.60;8.00;;;;;15.40;101307.00;;;;10519325;28;20189;-80
2022/04/13 12:28:41;;;;;;;13.57;8.70;;;;;15.40;101323.00;;;;10491356;28;20540;-79
2022/04/13 12:33:43;;;;;;;14.63;8.77;;;;;15.50;101324.00;;;;10520866;28;20240;-80
2022/04/13 12:38:55;;;;;;;15.27;9.67;;;;;15.70;101330.00;;;;10507817;28;20267;-80
2022/04/13 12:44:03;;;;;;;12.20;9.73;;;;;16.00;101334.00;;;;10547374;28;20642;-79
2022/04/13 12:49:06;;;;;;;15.83;10.90;;;;;15.90;101340.00;;;;10558232;27;20215;-79
2022/04/13 12:54:10;;;;;;;19.27;14.03;;;;;16.30;101336.00;;;;10572980;28;20303;-80
2022/04/13 12:59:25;;;;;;;19.27;13.60;;;;;16.80;101320.00;;;;10532356;28;20196;-80
2022/04/13 13:04:29;;;;;;;18.20;13.37;;;;;17.20;101321.00;;;;10500369;28;20559;-79
2022/04/13 13:09:33;;;;;;;19.98;14.77;;;;;18.50;101326.00;;;;10576217;27;20256;-79
2022/04/13 13:14:43;;;;;;;18.38;13.38;;;;;19.00;101310.00;;;;10523289;28;20205;-79
2022/04/13 13:19:48;;;;;;;16.23;12.57;;;;;18.80;101303.00;;;;10520302;28;20188;-79
2022/04/13 13:25:01;;;;;;;13.18;11.07;;;;;18.10;101303.00;;;;10499396;28;20196;-79
2022/04/13 13:30:13;;;;;;;16.37;11.00;;;;;18.20;101285.00;;;;10527799;27;20184;-79
2022/04/13 13:35:18;;;;;;;17.73;11.73;;;;;18.90;101285.00;;;;10526668;27;20215;-80
2022/04/13 13:40:31;;;;;;;14.18;9.75;;;;;19.40;101287.00;;;;10529033;28;20506;-80
2022/04/13 13:45:34;;;;;;;11.68;9.18;;;;;19.00;101300.00;;;;10531426;28;20201;-80
2022/04/13 13:50:38;;;;;;;14.90;8.88;;;;;18.60;101303.00;;;;10568046;28;20648;-80
2022/04/13 13:55:45;;;;;;;11.00;8.48;;;;;18.10;101307.00;;;;10564404;28;20216;-80
2022/04/13 14:00:52;;;;;;;11.93;8.63;;;;;17.70;101306.00;;;;10530661;28;20655;-80
2022/04/13 14:05:56;;;;;;;11.05;8.93;;;;;17.70;101310.00;;;;10521785;28;20188;-80
2022/04/13 14:10:58;;;;;;;10.93;7.82;;;;;17.40;101310.00;;;;10550619;27;20201;-80
2022/04/13 14:16:00;;;;;;;11.77;7.70;;;;;16.90;101312.00;;;;10547375;28;20207;-80
2022/04/13 14:21:02;;;;;;;10.35;7.93;;;;;16.60;101300.00;;;;10550477;27;20278;-80
2022/04/13 14:26:04;;;;;;;11.07;8.68;;;;;17.20;101309.00;;;;10511194;28;20200;-80
2022/04/13 14:31:06;;;;;;;11.30;9.33;;;;;17.40;101302.00;;;;10523556;27;20200;-80
2022/04/13 14:36:08;;;;;;;10.00;8.57;;;;;17.60;101305.00;;;;10518455;28;20200;-81
2022/04/13 14:41:10;;;;;;;12.25;8.45;;;;;17.80;101314.00;;;;10538760;27;20785;-82
2022/04/13 14:46:15;;;;;;;10.23;8.68;;;;;17.70;101313.00;;;;10545766;28;20279;-82
2022/04/13 14:51:17;;;;;;;10.82;8.80;;;;;17.20;101306.00;;;;10535029;27;20263;-82
2022/04/13 14:56:19;;;;;;;12.13;8.65;;;;;16.70;101299.00;;;;10513506;28;20204;-82
2022/04/13 15:01:22;;;;;;;12.83;9.17;;;;;16.70;101302.00;;;;10530191;28;20200;-81
2022/04/13 15:06:25;;;;;;;9.90;8.43;;;;;16.60;101293.00;;;;10537098;28;20192;-81
2022/04/13 15:11:27;;;;;;;11.47;9.23;;;;;16.50;101308.00;;;;10513869;27;20238;-81
2022/04/13 15:16:30;;;;;;;10.90;9.43;;;;;16.30;101302.00;;;;10516375;28;20227;-80
2022/04/13 15:21:33;;;;;;;12.27;10.53;;;;;16.20;101306.00;;;;10567133;28;20574;-80
2022/04/13 15:26:36;;;;;;;13.87;10.47;;;;;16.20;101301.00;;;;10534815;28;20230;-80
2022/04/13 15:31:38;;;;;;;14.00;9.90;;;;;16.10;101307.00;;;;10552067;27;20188;-81
2022/04/13 15:36:45;;;;;;;12.57;11.07;;;;;16.10;101306.00;;;;10544049;28;20205;-81
2022/04/13 15:41:49;;;;;;;12.80;10.13;;;;;16.00;101300.00;;;;10562867;28;20678;-81
2022/04/13 15:46:51;;;;;;;14.47;11.53;;;;;15.90;101308.00;;;;10560407;28;20205;-81
2022/04/13 15:51:53;;;;;;;11.77;10.53;;;;;15.70;101309.00;;;;10533741;28;20216;-81
2022/04/13 15:56:55;;;;;;;12.60;10.47;;;;;15.50;101304.00;;;;10516040;28;20744;-81
2022/04/13 16:01:57;;;;;;;14.20;10.97;;;;;15.50;101303.00;;;;10545623;28;20220;-82
2022/04/13 16:07:00;;;;;;;13.00;10.97;;;;;15.50;101310.00;;;;10520082;27;20258;-80
2022/04/13 16:12:04;;;;;;;13.00;10.67;;;;;15.40;101305.00;;;;10526120;28;20197;-82
2022/04/13 16:17:06;;;;;;;14.63;11.13;;;;;15.30;101310.00;;;;10500072;28;20245;-82
2022/04/13 16:22:08;;;;;;;15.70;12.13;;;;;15.20;101321.00;;;;10497347;28;20247;-82
2022/04/13 16:27:10;;;;;;;16.90;12.00;;;;;15.20;101323.00;;;;10537551;27;20221;-81
2022/04/13 16:32:12;;;;;;;16.60;12.37;;;;;15.20;101326.00;;;;10556608;28;20192;-82
2022/04/13 16:37:14;;;;;;;21.57;13.90;;;;;15.30;101328.00;;;;10514862;28;20214;-84
2022/04/13 16:42:19;;;;;;;18.93;13.93;;;;;15.20;101324.00;;;;10546923;28;20249;-82
2022/04/13 16:47:22;;;;;;;21.60;15.20;;;;;15.20;101320.00;;;;10543130;27;20237;-82
2022/04/13 16:52:24;;;;;;;21.50;15.43;;;;;15.10;101336.00;;;;10532845;27;20189;-85
2022/04/13 16:57:26;;;;;;;25.23;17.87;;;;;15.00;101325.00;;;;10514404;28;20211;-82
2022/04/13 17:02:28;;;;;;;25.43;18.67;;;;;14.90;101328.00;;;;10503810;28;20620;-82
2022/04/13 17:07:30;;;;;;;26.10;19.03;;;;;14.70;101321.00;;;;10509624;28;20188;-83
2022/04/13 17:12:32;;;;;;;29.33;19.70;;;;;14.60;101331.00;;;;10526415;28;20292;-83
2022/04/13 17:17:35;;;;;;;24.67;17.67;;;;;14.50;101334.00;;;;10511427;28;20188;-82
2022/04/13 17:22:40;;;;;;;25.63;17.30;;;;;14.40;101340.00;;;;10544230;27;20247;-83
2022/04/13 17:27:42;;;;;;;18.60;14.27;;;;;14.30;101357.00;;;;10541001;28;20192;-82
2022/04/13 17:32:44;;;;;;;19.60;14.37;;;;;14.30;101362.00;;;;10541671;28;20204;-82
2022/04/13 17:37:46;;;;;;;17.17;13.90;;;;;14.20;101377.00;;;;10548891;28;20299;-83
2022/04/13 17:42:48;;;;;;;18.10;13.37;;;;;14.10;101385.00;;;;10542078;28;20192;-83
2022/04/13 17:47:51;;;;;;;16.90;12.70;;;;;14.00;101389.00;;;;10505926;28;20658;-82
2022/04/13 17:52:53;;;;;;;16.10;12.20;;;;;13.90;101401.00;;;;10578106;27;20215;-82
2022/04/13 17:57:55;;;;;;;14.63;12.97;;;;;13.90;101399.00;;;;10582823;27;20199;-82
2022/04/13 18:02:57;;;;;;;15.53;12.37;;;;;13.80;101399.00;;;;10585441;27;20187;-82
2022/04/13 18:07:59;;;;;;;17.57;12.90;;;;;13.80;101402.00;;;;10551398;27;20216;-82
2022/04/13 18:13:03;;;;;;;17.87;14.27;;;;;13.70;101401.00;;;;10486009;28;20219;-82
2022/04/13 18:18:07;;;;;;;19.93;14.57;;;;;13.60;101395.00;;;;10518526;28;20196;-82
2022/04/13 18:23:10;;;;;;;21.67;16.33;;;;;13.60;101398.00;;;;10486743;28;20189;-83
2022/04/13 18:28:12;;;;;;;20.03;15.93;;;;;13.70;101409.00;;;;10508835;27;20201;-82
2022/04/13 18:33:16;;;;;;;20.67;15.40;;;;;13.60;101407.00;;;;10544819;28;20382;-82
2022/04/13 18:38:18;;;;;;;23.43;15.60;;;;;13.50;101410.00;;;;10519630;28;20577;-83
2022/04/13 18:43:19;;;;;;;19.57;14.90;;;;;13.30;101417.00;;;;10517565;27;20226;-82
2022/04/13 18:48:21;;;;;;;21.63;16.27;;;;;13.20;101414.00;;;;10528326;28;20231;-82
2022/04/13 18:53:23;;;;;;;24.60;18.13;;;;;13.10;101430.00;;;;10521239;27;20197;-82
2022/04/13 18:58:26;;;;;;;22.57;17.40;;;;;13.00;101424.00;;;;10527108;28;20674;-82
2022/04/13 19:03:28;;;;;;;21.70;17.87;;;;;12.90;101436.00;;;;10517420;28;20612;-82
2022/04/13 19:08:37;;;;;;;24.27;16.40;;;;;12.80;101445.00;;;;10519839;28;20200;-83
2022/04/13 19:13:39;;;;;;;22.63;17.53;;;;;12.60;101457.00;;;;10525516;28;20298;-82
2022/04/13 19:18:41;;;;;;;32.43;20.63;;;;;12.50;101458.00;;;;10536400;27;20196;-82
2022/04/13 19:23:43;;;;;;;30.10;20.73;;;;;12.50;101471.00;;;;10537611;28;20192;-83
2022/04/13 19:28:45;;;;;;;27.00;20.63;;;;;12.40;101474.00;;;;10540462;28;20189;-82
2022/04/13 19:33:47;;;;;;;28.63;20.57;;;;;12.40;101483.00;;;;10529097;27;20201;-82
2022/04/13 19:38:49;;;;;;;28.60;20.17;;;;;12.30;101474.00;;;;10525777;28;20215;-82
2022/04/13 19:43:52;;;;;;;24.53;19.73;;;;;12.20;101484.00;;;;10532386;27;20188;-82
2022/04/13 19:48:53;;;;;;;30.90;22.07;;;;;12.20;101486.00;;;;10554327;27;20258;-83
2022/04/13 19:53:55;;;;;;;30.43;22.27;;;;;12.20;101489.00;;;;10542316;28;20207;-82
2022/04/13 19:58:57;;;;;;;25.97;21.90;;;;;12.10;101491.00;;;;10497135;28;20890;-82
2022/04/13 20:03:59;;;;;;;28.43;21.80;;;;;12.00;101494.00;;;;10523145;28;20230;-82
2022/04/13 20:09:02;;;;;;;30.03;23.30;;;;;12.00;101500.00;;;;10513676;28;20192;-82
2022/04/13 20:14:04;;;;;;;30.53;23.10;;;;;11.90;101515.00;;;;10522913;28;20701;-83
2022/04/13 20:19:13;;;;;;;32.23;22.83;;;;;11.80;101514.00;;;;10535245;28;20235;-83
2022/04/13 20:24:15;;;;;;;30.10;23.17;;;;;11.80;101503.00;;;;10514687;28;20250;-83
2022/04/13 20:29:17;;;;;;;30.53;23.27;;;;;11.80;101518.00;;;;10498278;28;20193;-83
2022/04/13 20:34:19;;;;;;;34.87;23.77;;;;;11.70;101518.00;;;;10518120;28;20203;-83
2022/04/13 20:39:25;;;;;;;35.70;24.70;;;;;11.70;101526.00;;;;10518470;28;20242;-83
2022/04/13 20:44:31;;;;;;;30.83;23.67;;;;;11.60;101533.00;;;;10499412;28;20204;-83
2022/04/13 20:49:34;;;;;;;33.90;24.77;;;;;11.60;101536.00;;;;10522805;28;20199;-82
2022/04/13 20:54:36;;;;;;;32.00;25.17;;;;;11.50;101540.00;;;;10522760;28;20668;-82
2022/04/13 20:59:39;;;;;;;39.17;29.37;;;;;11.40;101549.00;;;;10513114;28;20273;-83
2022/04/13 21:04:41;;;;;;;41.53;28.57;;;;;11.40;101546.00;;;;10496793;28;20192;-82
2022/04/13 21:09:43;;;;;;;38.67;27.73;;;;;11.40;101548.00;;;;10523849;28;20204;-83
2022/04/13 21:14:45;;;;;;;38.40;28.77;;;;;11.30;101540.00;;;;10536185;28;20197;-83
2022/04/13 21:19:47;;;;;;;40.50;28.43;;;;;11.20;101545.00;;;;10536937;28;20214;-82
2022/04/13 21:24:49;;;;;;;42.03;30.50;;;;;11.10;101546.00;;;;10516068;27;20200;-82
2022/04/13 21:29:51;;;;;;;52.30;34.17;;;;;11.10;101542.00;;;;10536221;28;20848;-82
2022/04/13 21:34:54;;;;;;;49.37;33.40;;;;;11.00;101535.00;;;;10556647;28;20196;-82
2022/04/13 21:39:56;;;;;;;45.97;30.27;;;;;10.90;101536.00;;;;10535132;28;20216;-82
2022/04/13 21:44:58;;;;;;;42.60;31.50;;;;;10.90;101536.00;;;;10504468;28;20205;-82
2022/04/13 21:50:00;;;;;;;46.10;33.83;;;;;10.90;101542.00;;;;10574656;28;20212;-83
2022/04/13 21:55:02;;;;;;;41.97;30.97;;;;;10.90;101530.00;;;;10563755;27;20201;-82
2022/04/13 22:00:06;;;;;;;42.53;31.57;;;;;10.80;101531.00;;;;10525765;28;20540;-83
2022/04/13 22:05:11;;;;;;;42.17;31.13;;;;;10.80;101539.00;;;;10537985;28;20267;-82
2022/04/13 22:10:13;;;;;;;45.87;32.37;;;;;10.80;101533.00;;;;10500693;28;20203;-82
2022/04/13 22:15:15;;;;;;;43.97;31.27;;;;;10.70;101528.00;;;;10499402;28;20695;-82
2022/04/13 22:20:17;;;;;;;42.67;31.67;;;;;10.70;101531.00;;;;10509044;28;20235;-83
2022/04/13 22:25:19;;;;;;;47.53;33.23;;;;;10.70;101527.00;;;;10529007;28;20185;-82
2022/04/13 22:30:21;;;;;;;48.23;34.27;;;;;10.70;101535.00;;;;10530849;27;20219;-82
2022/04/13 22:35:23;;;;;;;44.40;33.57;;;;;10.80;101526.00;;;;10492961;28;20213;-82
2022/04/13 22:40:26;;;;;;;49.13;35.93;;;;;10.80;101527.00;;;;10511577;28;20235;-83
2022/04/13 22:45:28;;;;;;;58.47;37.43;;;;;10.70;101528.00;;;;10515040;28;20211;-82
2022/04/13 22:50:31;;;;;;;53.67;37.43;;;;;10.80;101527.00;;;;10543084;28;20206;-82
2022/04/13 22:55:33;;;;;;;60.77;39.00;;;;;10.80;101528.00;;;;10515268;28;20197;-82
2022/04/13 23:00:34;;;;;;;55.97;37.20;;;;;10.80;101517.00;;;;10546308;27;20195;-83
2022/04/13 23:05:36;;;;;;;54.87;36.97;;;;;10.70;101522.00;;;;10514627;28;20193;-82
2022/04/13 23:10:39;;;;;;;52.53;36.07;;;;;10.70;101522.00;;;;10518626;28;20192;-82
2022/04/13 23:15:41;;;;;;;49.17;36.00;;;;;10.60;101526.00;;;;10531268;28;20216;-82
2022/04/13 23:20:43;;;;;;;52.03;33.40;;;;;10.50;101539.00;;;;10527667;27;20189;-82
2022/04/13 23:25:45;;;;;;;50.13;34.07;;;;;10.40;101527.00;;;;10514012;28;20238;-82
2022/04/13 23:30:47;;;;;;;51.63;36.00;;;;;10.40;101524.00;;;;10487552;28;20189;-82
2022/04/13 23:35:49;;;;;;;52.60;34.50;;;;;10.30;101523.00;;;;10507307;27;20209;-82
2022/04/13 23:40:56;;;;;;;53.77;35.53;;;;;10.20;101522.00;;;;10570084;28;20215;-82
2022/04/13 23:45:57;;;;;;;52.97;34.97;;;;;10.10;101510.00;;;;10585050;27;20204;-82
2022/04/13 23:50:59;;;;;;;51.33;33.40;;;;;10.10;101517.00;;;;10568936;28;20196;-81
2022/04/13 23:56:03;;;;;;;50.73;32.87;;;;;10.00;101521.00;;;;10525334;28;20241;-82
